createdAt,value
2019-04-14T00:00:38.250Z,25.33
2019-04-14T00:03:09.318Z,26.43
2019-04-14T00:05:38.783Z,24.47
2019-04-14T00:08:08.873Z,23.93
2019-04-14T00:10:38.422Z,25.30
2019-04-14T00:13:08.862Z,25.00
2019-04-14T00:15:42.711Z,26.10
2019-04-14T00:18:09.708Z,25.30
2019-04-14T00:20:39.123Z,25.97
2019-04-14T00:23:08.791Z,24.93
2019-04-14T00:25:39.060Z,24.50
2019-04-14T00:28:09.504Z,26.37
2019-04-14T00:30:40.420Z,27.37
2019-04-14T00:33:12.685Z,26.90
2019-04-14T00:36:00.273Z,25.90
2019-04-14T00:38:32.292Z,26.10
2019-04-14T00:41:07.110Z,26.47
2019-04-14T00:43:53.342Z,25.47
2019-04-14T00:46:25.379Z,24.50
2019-04-14T00:48:55.955Z,26.40
2019-04-14T00:51:26.515Z,28.57
2019-04-14T00:53:56.236Z,28.27
2019-04-14T00:56:25.916Z,26.00
2019-04-14T00:58:56.095Z,26.33
2019-04-14T01:01:26.508Z,27.80
2019-04-14T01:03:56.946Z,25.13
2019-04-14T01:06:27.298Z,27.30
2019-04-14T01:08:57.556Z,29.17
2019-04-14T01:11:27.108Z,28.80
2019-04-14T01:13:57.152Z,27.70
2019-04-14T01:16:28.037Z,28.20
2019-04-14T01:18:58.068Z,29.57
2019-04-14T01:21:28.449Z,30.37
2019-04-14T01:23:58.922Z,30.73
2019-04-14T01:26:28.878Z,31.17
2019-04-14T01:28:59.350Z,27.83
2019-04-14T01:31:29.601Z,27.80
2019-04-14T01:33:59.802Z,26.67
2019-04-14T01:36:29.866Z,29.57
2019-04-14T01:39:00.255Z,34.00
2019-04-14T01:41:30.320Z,29.03
2019-04-14T01:44:00.316Z,30.23
2019-04-14T01:46:32.582Z,29.90
2019-04-14T01:49:00.850Z,32.37
2019-04-14T01:51:33.060Z,32.07
2019-04-14T01:54:04.319Z,31.73
2019-04-14T01:56:44.984Z,30.70
2019-04-14T01:59:15.289Z,30.20
2019-04-14T02:01:46.318Z,30.83
2019-04-14T02:04:15.982Z,29.63
2019-04-14T02:06:46.223Z,31.40
2019-04-14T02:09:16.200Z,30.90
2019-04-14T02:11:46.642Z,31.33
2019-04-14T02:14:16.883Z,27.00
2019-04-14T02:16:50.868Z,29.00
2019-04-14T02:19:17.756Z,31.10
2019-04-14T02:21:47.815Z,27.60
2019-04-14T02:24:17.844Z,27.37
2019-04-14T02:26:47.976Z,29.30
2019-04-14T02:29:17.462Z,29.20
2019-04-14T02:32:21.470Z,26.20
2019-04-14T02:34:57.981Z,28.40
2019-04-14T02:39:53.896Z,31.07
2019-04-14T02:42:27.700Z,28.33
2019-04-14T02:49:50.755Z,32.20
2019-04-14T02:52:26.660Z,30.43
2019-04-14T03:02:30.391Z,29.53
2019-04-14T03:04:56.835Z,34.00
2019-04-14T03:07:34.220Z,32.43
2019-04-14T03:09:52.453Z,31.87
2019-04-14T03:15:01.478Z,31.30
2019-04-14T03:20:20.722Z,34.13
2019-04-14T03:22:43.800Z,34.23
2019-04-14T03:25:11.492Z,34.17
2019-04-14T03:33:21.630Z,32.30
2019-04-14T03:36:12.097Z,32.97
2019-04-14T03:37:59.501Z,32.83
2019-04-14T03:40:34.399Z,35.07
2019-04-14T03:45:55.211Z,32.70
2019-04-14T03:48:34.620Z,33.13
2019-04-14T03:50:37.834Z,33.37
2019-04-14T03:55:54.419Z,34.30
2019-04-14T03:58:18.657Z,33.03
2019-04-14T04:00:49.155Z,32.70
2019-04-14T04:03:19.610Z,33.57
2019-04-14T04:05:49.949Z,34.43
2019-04-14T04:08:20.131Z,36.47
2019-04-14T04:10:51.154Z,32.57
2019-04-14T04:13:21.565Z,32.67
2019-04-14T04:15:52.018Z,32.80
2019-04-14T04:18:26.577Z,31.90
2019-04-14T04:21:14.033Z,32.33
2019-04-14T04:23:47.487Z,30.70
2019-04-14T04:26:21.467Z,30.00
2019-04-14T04:28:56.232Z,31.40
2019-04-14T04:31:33.307Z,30.30
2019-04-14T04:34:10.041Z,29.67
2019-04-14T04:36:57.599Z,29.73
2019-04-14T04:39:28.588Z,29.93
2019-04-14T04:41:58.025Z,31.13
2019-04-14T04:44:27.411Z,31.23
2019-04-14T04:46:56.970Z,29.77
2019-04-14T04:49:28.159Z,30.87
2019-04-14T04:51:57.431Z,32.70
2019-04-14T04:54:27.840Z,28.93
2019-04-14T04:56:58.022Z,29.87
2019-04-14T04:59:27.753Z,28.67
2019-04-14T05:01:58.045Z,29.27
2019-04-14T05:04:28.576Z,30.30
2019-04-14T05:07:01.287Z,29.67
2019-04-14T05:09:39.167Z,30.40
2019-04-14T05:12:17.328Z,28.23
2019-04-14T05:15:01.095Z,31.60
2019-04-14T05:17:35.051Z,27.23
2019-04-14T05:20:05.280Z,28.67
2019-04-14T05:22:35.408Z,30.43
2019-04-14T05:25:06.345Z,29.23
2019-04-14T05:27:36.604Z,28.30
2019-04-14T05:30:06.986Z,27.67
2019-04-14T05:32:36.934Z,30.27
2019-04-14T05:35:07.448Z,29.37
2019-04-14T05:37:37.851Z,27.43
2019-04-14T05:40:08.151Z,27.87
2019-04-14T05:42:38.452Z,27.53
2019-04-14T05:45:08.759Z,27.53
2019-04-14T05:47:39.278Z,27.43
2019-04-14T05:50:09.511Z,26.50
2019-04-14T05:52:40.371Z,27.73
2019-04-14T05:55:11.251Z,31.13
2019-04-14T05:57:41.645Z,26.63
2019-04-14T06:00:12.851Z,24.83
2019-04-14T06:02:42.218Z,32.40
2019-04-14T06:05:12.947Z,25.87
2019-04-14T06:07:42.430Z,27.73
2019-04-14T06:10:11.848Z,27.67
2019-04-14T06:12:41.211Z,25.40
2019-04-14T06:15:10.996Z,23.90
2019-04-14T06:17:40.429Z,22.13
2019-04-14T06:20:10.128Z,25.07
2019-04-14T06:22:39.483Z,25.33
2019-04-14T06:25:09.372Z,24.50
2019-04-14T06:27:38.760Z,23.63
2019-04-14T06:30:19.096Z,23.70
2019-04-14T06:32:49.630Z,23.67
2019-04-14T06:35:26.082Z,21.37
2019-04-14T06:37:57.098Z,22.10
2019-04-14T06:40:28.090Z,22.27
2019-04-14T06:42:57.505Z,25.43
2019-04-14T06:45:26.847Z,22.20
2019-04-14T06:47:56.205Z,22.63
2019-04-14T06:50:25.548Z,25.43
2019-04-14T06:52:54.914Z,25.23
2019-04-14T06:55:24.316Z,21.20
2019-04-14T06:57:53.674Z,23.00
2019-04-14T07:00:23.037Z,22.17
2019-04-14T07:02:52.405Z,22.83
2019-04-14T07:05:21.737Z,21.63
2019-04-14T07:07:56.852Z,22.07
2019-04-14T07:10:22.160Z,21.80
2019-04-14T07:12:51.515Z,23.67
2019-04-14T07:15:20.871Z,21.20
2019-04-14T07:17:50.221Z,20.50
2019-04-14T07:20:19.583Z,21.67
2019-04-14T07:22:48.954Z,21.90
2019-04-14T07:25:18.310Z,21.40
2019-04-14T07:27:47.821Z,22.13
2019-04-14T07:30:34.091Z,23.57
2019-04-14T07:33:11.061Z,21.20
2019-04-14T07:35:51.251Z,21.03
2019-04-14T07:38:38.768Z,21.33
2019-04-14T07:41:22.073Z,24.20
2019-04-14T07:43:53.083Z,21.63
2019-04-14T07:46:30.259Z,21.20
2019-04-14T07:49:01.278Z,18.87
2019-04-14T07:51:50.546Z,21.00
2019-04-14T07:54:27.320Z,20.20
2019-04-14T07:57:14.519Z,18.33
2019-04-14T08:00:01.687Z,25.03
2019-04-14T08:02:32.751Z,18.03
2019-04-14T08:05:03.797Z,19.53
2019-04-14T08:07:33.406Z,17.53
2019-04-14T08:10:02.907Z,19.77
2019-04-14T08:12:35.062Z,22.17
2019-04-14T08:15:03.966Z,19.70
2019-04-14T08:17:33.366Z,17.20
2019-04-14T08:20:02.993Z,20.03
2019-04-14T08:22:32.354Z,15.80
2019-04-14T08:25:01.713Z,17.57
2019-04-14T08:27:31.129Z,18.57
2019-04-14T08:30:00.470Z,20.23
2019-04-14T08:32:29.965Z,18.20
2019-04-14T08:34:59.391Z,18.60
2019-04-14T08:37:28.755Z,19.03
2019-04-14T08:39:58.115Z,19.40
2019-04-14T08:42:45.345Z,20.17
2019-04-14T08:45:16.339Z,16.53
2019-04-14T08:47:50.312Z,18.53
2019-04-14T08:50:21.372Z,17.53
2019-04-14T08:52:52.414Z,16.27
2019-04-14T08:55:23.544Z,16.13
2019-04-14T08:57:57.263Z,18.50
2019-04-14T09:00:37.331Z,18.10
2019-04-14T09:03:11.833Z,14.93
2019-04-14T09:05:52.214Z,15.20
2019-04-14T09:08:23.224Z,15.73
2019-04-14T09:10:54.230Z,16.93
2019-04-14T09:13:23.602Z,16.63
2019-04-14T09:15:53.018Z,16.70
2019-04-14T09:18:22.392Z,16.23
2019-04-14T09:20:52.794Z,17.50
2019-04-14T09:23:22.486Z,15.60
2019-04-14T09:25:51.861Z,15.73
2019-04-14T09:28:21.218Z,16.13
2019-04-14T09:30:50.587Z,16.47
2019-04-14T09:33:19.999Z,15.20
2019-04-14T09:35:49.378Z,17.43
2019-04-14T09:38:18.782Z,16.17
2019-04-14T09:40:48.137Z,15.87
2019-04-14T09:43:17.519Z,16.13
2019-04-14T09:45:46.895Z,15.47
2019-04-14T09:48:16.456Z,15.70
2019-04-14T09:50:45.903Z,16.47
2019-04-14T09:53:15.270Z,16.10
2019-04-14T09:55:44.709Z,16.33
2019-04-14T09:58:14.159Z,15.30
2019-04-14T10:00:43.518Z,16.30
2019-04-14T10:03:12.965Z,18.57
2019-04-14T10:05:42.327Z,15.30
2019-04-14T10:08:11.699Z,16.17
2019-04-14T10:10:41.141Z,16.70
2019-04-14T10:13:10.608Z,16.03
2019-04-14T10:15:40.305Z,18.50
2019-04-14T10:18:09.708Z,15.80
2019-04-14T10:20:39.794Z,16.13
2019-04-14T10:23:09.170Z,15.73
2019-04-14T10:25:38.576Z,17.77
2019-04-14T10:28:08.023Z,18.53
2019-04-14T10:30:37.382Z,15.53
2019-04-14T10:33:06.760Z,16.27
2019-04-14T10:35:36.150Z,14.50
2019-04-14T10:38:05.602Z,15.37
2019-04-14T10:40:35.064Z,16.37
2019-04-14T10:43:04.698Z,16.83
2019-04-14T10:45:34.090Z,15.97
2019-04-14T10:48:03.566Z,14.47
2019-04-14T10:50:33.124Z,16.60
2019-04-14T10:53:02.580Z,14.83
2019-04-14T10:55:32.095Z,15.23
2019-04-14T10:58:01.514Z,14.10
2019-04-14T11:00:30.910Z,14.97
2019-04-14T11:03:00.301Z,14.97
2019-04-14T11:05:31.321Z,14.57
2019-04-14T11:08:00.681Z,16.30
2019-04-14T11:10:30.102Z,14.07
2019-04-14T11:12:59.519Z,15.00
2019-04-14T11:15:28.918Z,15.13
2019-04-14T11:17:58.268Z,16.00
2019-04-14T11:20:27.629Z,16.23
2019-04-14T11:23:03.172Z,14.53
2019-04-14T11:25:28.040Z,16.20
2019-04-14T11:27:57.489Z,15.40
2019-04-14T11:30:26.859Z,15.50
2019-04-14T11:33:00.617Z,15.33
2019-04-14T11:35:48.098Z,15.07
2019-04-14T11:38:22.068Z,14.07
2019-04-14T11:40:55.776Z,16.30
2019-04-14T11:43:25.154Z,14.20
2019-04-14T11:45:54.779Z,14.87
2019-04-14T11:48:24.200Z,14.80
2019-04-14T11:50:53.601Z,16.00
2019-04-14T11:53:23.374Z,13.70
2019-04-14T11:55:52.883Z,13.67
2019-04-14T11:58:22.242Z,13.87
2019-04-14T12:00:53.376Z,16.73
2019-04-14T12:03:27.135Z,13.70
2019-04-14T12:05:58.151Z,15.03
2019-04-14T12:08:32.082Z,14.10
2019-04-14T12:11:01.831Z,13.97
2019-04-14T12:13:31.191Z,13.77
2019-04-14T12:16:00.566Z,14.27
2019-04-14T12:18:29.987Z,15.23
2019-04-14T12:20:59.383Z,13.97
2019-04-14T12:23:28.778Z,14.07
2019-04-14T12:26:05.155Z,15.27
2019-04-14T12:28:29.243Z,12.70
2019-04-14T12:30:59.768Z,12.43
2019-04-14T12:33:29.383Z,13.97
2019-04-14T12:35:58.772Z,13.30
2019-04-14T12:38:28.200Z,12.40
2019-04-14T12:40:59.360Z,12.30
2019-04-14T12:43:42.528Z,13.17
2019-04-14T12:46:29.745Z,12.83
2019-04-14T12:49:16.056Z,12.70
2019-04-14T12:51:56.115Z,13.37
2019-04-14T12:54:26.756Z,12.00
2019-04-14T12:56:56.117Z,13.63
2019-04-14T12:59:25.868Z,12.67
2019-04-14T13:02:11.048Z,12.07
2019-04-14T13:04:40.181Z,15.23
2019-04-14T13:07:09.766Z,13.33
2019-04-14T13:09:39.234Z,13.40
2019-04-14T13:12:10.251Z,15.00
2019-04-14T13:14:39.794Z,14.27
2019-04-14T13:17:09.166Z,13.83
2019-04-14T13:19:38.641Z,12.83
2019-04-14T13:22:08.105Z,13.90
2019-04-14T13:24:37.487Z,13.40
2019-04-14T13:27:07.011Z,13.93
2019-04-14T13:29:36.531Z,13.97
2019-04-14T13:32:06.630Z,13.30
2019-04-14T13:34:36.137Z,14.23
2019-04-14T13:37:05.495Z,13.97
2019-04-14T13:39:34.859Z,13.83
2019-04-14T13:42:04.348Z,14.67
2019-04-14T13:44:33.741Z,14.87
2019-04-14T13:47:03.087Z,12.53
2019-04-14T13:49:32.469Z,12.47
2019-04-14T13:52:01.824Z,12.00
2019-04-14T13:54:31.257Z,13.03
2019-04-14T13:57:00.683Z,15.37
2019-04-14T13:59:30.168Z,15.80
2019-04-14T14:01:59.523Z,14.87
2019-04-14T14:04:28.882Z,16.27
2019-04-14T14:06:58.278Z,13.03
2019-04-14T14:09:27.638Z,14.23
2019-04-14T14:12:13.751Z,13.87
2019-04-14T14:14:50.453Z,13.63
2019-04-14T14:17:21.456Z,14.23
2019-04-14T14:19:55.480Z,12.50
2019-04-14T14:22:32.387Z,12.67
2019-04-14T14:25:12.639Z,17.27
2019-04-14T14:27:42.006Z,12.17
2019-04-14T14:30:13.163Z,13.40
2019-04-14T14:32:42.580Z,15.10
2019-04-14T14:35:12.118Z,15.80
2019-04-14T14:37:41.464Z,14.33
2019-04-14T14:40:11.226Z,14.50
2019-04-14T14:42:40.667Z,14.40
2019-04-14T14:45:27.600Z,13.87
2019-04-14T14:48:04.499Z,14.00
2019-04-14T14:50:38.392Z,15.47
2019-04-14T14:53:12.283Z,14.47
2019-04-14T14:55:38.918Z,14.90
2019-04-14T14:58:08.346Z,12.53
2019-04-14T15:00:37.723Z,14.37
2019-04-14T15:03:07.424Z,12.40
2019-04-14T15:05:36.792Z,13.40
2019-04-14T15:08:06.159Z,14.03
2019-04-14T15:10:35.611Z,14.50
2019-04-14T15:13:05.146Z,14.63
2019-04-14T15:15:34.586Z,14.07
2019-04-14T15:18:04.376Z,13.07
2019-04-14T15:20:33.982Z,13.73
2019-04-14T15:23:03.410Z,12.30
2019-04-14T15:25:32.846Z,14.33
2019-04-14T15:28:02.203Z,13.23
2019-04-14T15:30:31.780Z,12.63
2019-04-14T15:33:01.150Z,12.00
2019-04-14T15:35:30.559Z,10.80
2019-04-14T15:38:00.072Z,12.07
2019-04-14T15:40:29.496Z,12.17
2019-04-14T15:42:58.859Z,12.20
2019-04-14T15:45:28.333Z,10.83
2019-04-14T15:47:57.687Z,10.77
2019-04-14T15:50:27.116Z,10.80
2019-04-14T15:52:56.483Z,9.33
2019-04-14T15:55:25.837Z,10.67
2019-04-14T15:58:02.697Z,9.60
2019-04-14T16:00:33.766Z,9.70
2019-04-14T16:03:20.854Z,9.87
2019-04-14T16:06:04.134Z,9.93
2019-04-14T16:08:41.096Z,8.13
2019-04-14T16:11:12.070Z,8.30
2019-04-14T16:13:48.617Z,8.53
2019-04-14T16:16:22.343Z,9.80
2019-04-14T16:18:59.085Z,8.30
2019-04-14T16:21:28.450Z,9.17
2019-04-14T16:23:57.833Z,8.40
2019-04-14T16:26:28.903Z,9.40
2019-04-14T16:29:02.818Z,9.07
2019-04-14T16:31:50.106Z,11.67
2019-04-14T16:34:27.103Z,9.03
2019-04-14T16:36:56.905Z,8.97
2019-04-14T16:39:26.329Z,10.20
2019-04-14T16:41:55.742Z,9.03
2019-04-14T16:44:25.145Z,9.63
2019-04-14T16:46:54.523Z,9.97
2019-04-14T16:49:23.881Z,9.60
2019-04-14T16:51:54.968Z,11.80
2019-04-14T16:54:31.664Z,9.10
2019-04-14T16:57:20.803Z,12.67
2019-04-14T16:59:50.168Z,11.63
2019-04-14T17:02:19.535Z,13.23
2019-04-14T17:04:48.911Z,10.50
2019-04-14T17:07:18.286Z,11.87
2019-04-14T17:09:47.734Z,11.47
2019-04-14T17:12:17.177Z,12.37
2019-04-14T17:14:54.135Z,12.73
2019-04-14T17:17:41.310Z,11.87
2019-04-14T17:20:12.475Z,11.87
2019-04-14T17:22:46.211Z,13.93
2019-04-14T17:25:23.349Z,12.97
2019-04-14T17:27:57.123Z,13.43
2019-04-14T17:30:28.184Z,12.73
2019-04-14T17:32:59.267Z,11.40
2019-04-14T17:35:45.676Z,12.00
2019-04-14T17:38:19.596Z,12.30
2019-04-14T17:40:56.595Z,12.60
2019-04-14T17:43:27.613Z,13.63
2019-04-14T17:45:58.619Z,12.20
2019-04-14T17:48:44.916Z,11.70
2019-04-14T17:51:24.594Z,13.00
2019-04-14T17:53:55.614Z,11.80
2019-04-14T17:56:26.613Z,12.23
2019-04-14T17:59:03.630Z,11.97
2019-04-14T18:01:49.623Z,11.70
2019-04-14T18:04:32.463Z,13.70
2019-04-14T18:07:03.607Z,12.13
2019-04-14T18:09:40.248Z,12.60
2019-04-14T18:12:11.274Z,13.20
2019-04-14T18:14:42.295Z,13.80
2019-04-14T18:17:13.325Z,13.10
2019-04-14T18:19:44.331Z,11.83
2019-04-14T18:22:13.789Z,12.33
2019-04-14T18:24:43.151Z,15.37
2019-04-14T18:27:12.532Z,12.20
2019-04-14T18:29:43.671Z,14.87
2019-04-14T18:32:17.101Z,12.57
2019-04-14T18:34:50.941Z,12.73
2019-04-14T18:37:24.816Z,13.23
2019-04-14T18:39:58.753Z,16.37
2019-04-14T18:42:32.271Z,11.40
2019-04-14T18:45:18.141Z,13.27
2019-04-14T18:47:49.156Z,10.60
2019-04-14T18:50:20.753Z,11.93
2019-04-14T18:53:00.500Z,14.93
2019-04-14T18:55:43.463Z,13.10
2019-04-14T18:58:14.705Z,12.93
2019-04-14T19:00:46.021Z,14.27
2019-04-14T19:03:16.289Z,12.43
2019-04-14T19:05:46.056Z,12.60
2019-04-14T19:08:15.785Z,12.37
2019-04-14T19:10:47.120Z,12.87
2019-04-14T19:13:27.252Z,12.70
2019-04-14T19:16:01.000Z,12.80
2019-04-14T19:18:32.259Z,12.10
2019-04-14T19:21:03.441Z,14.17
2019-04-14T19:23:32.983Z,12.47
2019-04-14T19:26:02.490Z,12.33
2019-04-14T19:28:31.918Z,14.63
2019-04-14T19:31:01.300Z,11.57
2019-04-14T19:33:30.667Z,14.23
2019-04-14T19:36:00.034Z,13.63
2019-04-14T19:38:29.400Z,13.00
2019-04-14T19:40:58.937Z,13.93
2019-04-14T19:43:28.349Z,12.63
2019-04-14T19:45:57.847Z,12.93
2019-04-14T19:48:27.297Z,14.20
2019-04-14T19:50:56.661Z,13.33
2019-04-14T19:53:26.039Z,13.27
2019-04-14T19:55:55.396Z,11.63
2019-04-14T19:58:24.814Z,12.63
2019-04-14T20:00:54.171Z,12.37
2019-04-14T20:03:23.548Z,11.30
2019-04-14T20:05:52.894Z,11.23
2019-04-14T20:08:22.366Z,12.00
2019-04-14T20:10:51.735Z,10.07
2019-04-14T20:13:21.130Z,11.90
2019-04-14T20:15:57.955Z,9.40
2019-04-14T20:18:47.242Z,10.40
2019-04-14T20:21:34.555Z,9.27
2019-04-14T20:24:08.580Z,9.93
2019-04-14T20:26:48.258Z,9.60
2019-04-14T20:29:19.288Z,9.57
2019-04-14T20:32:09.727Z,9.47
2019-04-14T20:34:39.125Z,9.03
2019-04-14T20:37:09.036Z,8.57
2019-04-14T20:39:38.557Z,8.60
2019-04-14T20:42:08.334Z,8.17
2019-04-14T20:44:37.783Z,8.80
2019-04-14T20:47:08.798Z,8.80
2019-04-14T20:49:38.401Z,9.57
2019-04-14T20:52:07.928Z,8.30
2019-04-14T20:54:37.346Z,8.87
2019-04-14T20:57:06.851Z,9.43
2019-04-14T20:59:36.268Z,8.13
2019-04-14T21:02:10.263Z,8.23
2019-04-14T21:04:57.387Z,7.90
2019-04-14T21:07:31.170Z,6.80
2019-04-14T21:10:10.908Z,7.07
2019-04-14T21:12:44.652Z,6.47
2019-04-14T21:15:27.746Z,6.20
2019-04-14T21:18:01.179Z,5.97
2019-04-14T21:20:47.449Z,6.77
2019-04-14T21:23:18.453Z,6.40
2019-04-14T21:26:00.702Z,5.97
2019-04-14T21:28:49.562Z,6.10
2019-04-14T21:31:29.528Z,6.37
2019-04-14T21:34:03.488Z,5.57
2019-04-14T21:36:49.367Z,6.80
2019-04-14T21:39:36.419Z,5.30
2019-04-14T21:42:06.351Z,5.77
2019-04-14T21:44:35.765Z,5.10
2019-04-14T21:47:05.237Z,5.47
2019-04-14T21:49:34.611Z,5.77
2019-04-14T21:52:05.653Z,5.50
2019-04-14T21:54:35.022Z,5.63
2019-04-14T21:57:15.357Z,5.80
2019-04-14T22:00:02.919Z,5.60
2019-04-14T22:02:50.170Z,5.70
2019-04-14T22:05:36.320Z,5.90
2019-04-14T22:08:07.384Z,5.90
2019-04-14T22:10:40.938Z,5.87
2019-04-14T22:13:10.378Z,5.63
2019-04-14T22:15:39.722Z,5.97
2019-04-14T22:18:09.146Z,5.77
2019-04-14T22:20:38.566Z,5.60
2019-04-14T22:23:09.610Z,5.47
2019-04-14T22:25:39.017Z,5.90
2019-04-14T22:28:08.431Z,5.70
2019-04-14T22:30:37.848Z,5.23
2019-04-14T22:33:07.352Z,5.67
2019-04-14T22:35:36.677Z,6.23
2019-04-14T22:38:06.158Z,5.90
2019-04-14T22:40:35.523Z,5.23
2019-04-14T22:43:05.026Z,7.23
2019-04-14T22:45:34.615Z,6.43
2019-04-14T22:48:04.158Z,5.77
2019-04-14T22:50:33.517Z,6.77
2019-04-14T22:53:02.867Z,8.00
2019-04-14T22:55:32.548Z,6.13
2019-04-14T22:58:01.886Z,6.27
2019-04-14T23:00:32.947Z,6.90
2019-04-14T23:03:12.899Z,6.73
2019-04-14T23:06:00.074Z,6.77
2019-04-14T23:08:45.850Z,7.17
2019-04-14T23:11:33.082Z,7.30
2019-04-14T23:14:20.322Z,8.20
2019-04-14T23:17:07.223Z,7.87
2019-04-14T23:19:44.146Z,7.20
2019-04-14T23:22:15.295Z,8.13
2019-04-14T23:24:46.274Z,6.67
2019-04-14T23:27:15.631Z,8.60
2019-04-14T23:29:44.988Z,7.80
2019-04-14T23:32:14.315Z,8.27
2019-04-14T23:34:43.662Z,7.53
2019-04-14T23:37:13.008Z,8.00
2019-04-14T23:39:42.442Z,8.37
2019-04-14T23:42:11.792Z,8.67
2019-04-14T23:44:42.054Z,8.87
2019-04-14T23:47:11.390Z,8.23
2019-04-14T23:49:40.749Z,8.87
2019-04-14T23:52:10.114Z,8.47
2019-04-14T23:54:39.532Z,9.43
2019-04-14T23:57:08.871Z,10.03
2019-04-14T23:59:38.236Z,9.83
